キング・ハーリド国際空港(リヤド)の過去48時間の天気

キング・ハーリド国際空港(リヤド) (King Khaled International Airport)

現在時刻: 2/21 06:27 +03 (2/21 03:27 UTC) 以下の時間は現地時間です。

過去48時間のMETAR気象情報
時間 風向 風速(m/s) 視程 気温(℃) 湿度(%) 気圧(hPa) 天気現象
21 06:00 西北西 2 8000m 11 58 1019
21 05:00 西北西 2 8000m 12 54 1019
21 04:00 北北西 1 8000m 12 58 1018
21 03:00 北北西 2 8000m 13 54 1018
21 02:00 3 8000m 14 47 1019
21 01:00 4 8000m 14 47 1019
21 00:00 4 10km以上 15 41 1019
20 23:00 5 10km以上 16 36 1019
20 22:00 5 10km以上 16 36 1019
20 21:00 4 10km以上 17 34 1019
20 20:00 5 10km以上 18 30 1018
20 19:00 6 10km以上 19 28 1017
20 18:00 6 10km以上 21 26 1016
20 17:00 6 10km以上 23 23 1015
20 16:00 北北西 6 10km以上 23 25 1015
20 15:00 北北西 6 10km以上 23 29 1014
20 14:00 北北西 6 10km以上 23 27 1015
20 13:00 北北西 6 10km以上 23 29 1016
20 12:00 北北西 7 10km以上 21 33 1016
20 11:00 北北西 7 6000m 20 37 1017
20 10:00 北北西 8 5000m 19 40 1017 高い風塵
20 09:00 北北西 9 5000m 18 42 1017 高い風塵
20 08:00 北西 8 4000m 19 60 1016 高い風塵
20 07:41 北北西 8 5000m 20 56 1015 高い風塵
20 07:00 西 4 6000m 22 31 1014
20 06:00 西 5 4000m 22 38 1013 風塵
20 05:00 西 3 3000m 22 50 1012 煙霧
20 04:24 西 4 3000m 23 47 1012 煙霧
20 04:00 西 4 4000m 23 50 1012 煙霧
20 03:33 西 3 4000m 23 50 1012 煙霧
20 03:00 2 10km以上 22 33 1012
20 02:00 南南西 2 10km以上 23 27 1012
20 01:00 5 10km以上 24 24 1011
20 00:00 6 10km以上 25 21 1012
19 23:00 6 10km以上 25 19 1011
19 22:00 南南東 6 10km以上 26 20 1011
19 21:00 南南東 4 8000m 27 18 1011
19 20:00 南南東 4 7000m 27 17 1011
19 19:00 5 6000m 28 15 1011
19 18:00 南南東 5 5000m 29 14 1010 風塵
19 17:00 南南東 6 5000m 30 13 1010 高い風塵
19 16:00 7 5000m 30 13 1010 高い風塵
19 15:00 7 5000m 31 14 1011 高い風塵
19 14:00 南南東 7 5000m 30 15 1011 高い風塵
19 13:00 7 5000m 29 15 1013 高い風塵
19 12:00 7 8000m 28 17 1014
19 11:00 7 9000m 27 20 1015
19 10:00 8 9000m 25 21 1016
19 09:00 南南東 5 10km以上 23 25 1016
19 08:00 南南東 3 10km以上 20 30 1016
19 07:00 南南東 3 10km以上 18 34 1016
OERK 210300Z 30003KT 8000 NSC 11/03 Q1019 NOSIG
OERK 210200Z 30003KT 8000 NSC 12/03 Q1019 TEMPO 5000 HZ
OERK 210100Z 33002KT 8000 NSC 12/04 Q1018 TEMPO 5000 HZ
OERK 210000Z 34003KT 8000 NSC 13/04 Q1018 TEMPO 5000 HZ
OERK 202300Z 35005KT 8000 NSC 14/03 Q1019 NOSIG
OERK 202200Z 35007KT 8000 NSC 14/03 Q1019 NOSIG
OERK 202100Z 36008KT CAVOK 15/02 Q1019 NOSIG
OERK 202000Z 36009KT CAVOK 16/01 Q1019 NOSIG
OERK 201900Z 01009KT CAVOK 16/01 Q1019 NOSIG
OERK 201800Z 01007KT CAVOK 17/01 Q1019 NOSIG
OERK 201700Z 35010KT CAVOK 18/00 Q1018 NOSIG
OERK 201600Z 35011KT CAVOK 19/00 Q1017 NOSIG
OERK 201500Z 35011KT CAVOK 21/01 Q1016 NOSIG
OERK 201400Z 36012KT CAVOK 23/01 Q1015 TEMPO 5000 BLDU
OERK 201300Z 34012KT CAVOK 23/02 Q1015 NOSIG
OERK 201200Z 33011KT 9999 FEW040 23/04 Q1014 NOSIG
OERK 201100Z 33012KT 9999 SCT040 23/03 Q1015 NOSIG
OERK 201000Z 34012KT 9999 SCT040 23/04 Q1016 NOSIG
OERK 200900Z 33014KT 9999 SCT040 21/04 Q1016 NOSIG
OERK 200800Z 34013KT 6000 BKN040 20/05 Q1017 NOSIG
OERK 200700Z 34015KT 5000 BLDU BKN040 19/05 Q1017 NOSIG
OERK 200600Z 33017KT 5000 BLDU BKN040 18/05 Q1017 NOSIG
OERK 200500Z 32016KT 4000 BLDU SCT040 BKN080 19/11 Q1016 NOSIG
OERK 200441Z 33016KT 5000 BLDU SCT040 BKN080 20/11 Q1015
OERK 200400Z 28008KT 6000 SCT040 BKN080 22/04 Q1014 NOSIG
OERK 200300Z 28009KT 4000 DU NSC 22/07 Q1013 TEMPO TSRA
OERK 200200Z 27005KT 3000 HZ NSC 22/11 Q1012 TEMPO TSRA
OERK 200124Z 27007KT 3000 HZ NSC 23/11 Q1012 TEMPO TSRA
OERK 200100Z 27008KT 4000 HZ NSC 23/12 Q1012 TEMPO TSRA
OERK 200033Z 27005KT 4000 HZ NSC 23/12 Q1012 TEMPO TSRA
OERK 200000Z 19003KT CAVOK 22/05 Q1012 TEMPO TSRA
OERK 192300Z 20004KT CAVOK 23/03 Q1012 TEMPO TSRA
OERK 192200Z 17010KT CAVOK 24/02 Q1011 TEMPO 5000 TSRA
OERK 192100Z 17011KT 9999 FEW040 SCT080 25/01 Q1012 NOSIG
OERK 192000Z 17012KT 9999 FEW040 SCT080 25/00 Q1011 NOSIG
OERK 191900Z 16011KT 9999 FEW040 SCT080 26/01 Q1011 NOSIG
OERK 191800Z 16008KT 8000 SCT040 BKN080 27/01 Q1011 NOSIG
OERK 191700Z 16008KT 7000 SCT040 BKN080 27/00 Q1011 NOSIG
OERK 191600Z 17010KT 6000 SCT040 SCT180 28/M01 Q1011 NOSIG
OERK 191500Z 16010KT 5000 DU SCT040 SCT180 29/M01 Q1010 NOSIG
OERK 191400Z 16012KT 5000 BLDU SCT040 SCT180 30/M01 Q1010 NOSIG
OERK 191300Z 17014KT 5000 BLDU SCT040 SCT180 30/M01 Q1010 NOSIG
OERK 191200Z 17013G23KT 5000 BLDU NSC 31/00 Q1011 NOSIG
OERK 191100Z 16013KT 5000 BLDU NSC 30/01 Q1011 NOSIG
OERK 191000Z 17013KT 5000 BLDU NSC 29/00 Q1013 NOSIG
OERK 190900Z 17013KT 8000 SCT040 28/01 Q1014 NOSIG
OERK 190800Z 17013KT 9000 FEW040 27/02 Q1015 NOSIG
OERK 190700Z 17015KT 9000 NSC 25/01 Q1016 NOSIG
OERK 190600Z 15009KT CAVOK 23/02 Q1016 NOSIG
OERK 190500Z 15006KT CAVOK 20/02 Q1016 NOSIG
OERK 190400Z 15005KT CAVOK 18/02 Q1016 NOSIG